Jetmore, Kansas
Current Conditions -  °F | °C
As of 7:52 PM on Friday 28 Nov 2014 (Local Time) from KDDC Reporting Station
Clear Clear  
Wind Chill: 55°   Ceiling: Unl
Heat Index: 55°   Visibility: 10mi
Dew Point: 27°   Wind: 13mph
Humidity: 34%   Direction: 170°S
Pressure: 29.76"   Gusts: NA
Location:  38.08°N, 99.89°W
Report Text: KDDC 290152Z AUTO 17011KT 10SM CLR 13/M03 A2976 RMK AO2 SLP078 T01281028
Loading
Personal Weather Stations






























Interactive Weather Map New forecast layout! Learn more

10-Day Weather Forecast

Advertisements
Track Severe Weather on mobile